createdAt,value
2022-09-26T00:01:49.421Z,96892.00
2022-09-26T00:04:23.358Z,96897.00
2022-09-26T00:06:53.550Z,96884.00
2022-09-26T00:09:23.695Z,96894.00
2022-09-26T00:11:52.750Z,96883.00
2022-09-26T00:14:29.275Z,96888.00
2022-09-26T00:16:58.225Z,96876.00
2022-09-26T00:19:26.508Z,96885.00
2022-09-26T00:21:54.637Z,96876.00
2022-09-26T00:24:22.719Z,96885.00
2022-09-26T00:26:50.951Z,96887.00
2022-09-26T00:29:19.182Z,96889.00
2022-09-26T00:31:49.150Z,96868.00
2022-09-26T00:34:19.757Z,96887.00
2022-09-26T00:36:49.795Z,96881.00
2022-09-26T00:39:18.725Z,96881.00
2022-09-26T00:41:46.894Z,96874.00
2022-09-26T00:44:49.453Z,96888.00
2022-09-26T00:47:38.387Z,96883.00
2022-09-26T00:50:16.222Z,96885.00
2022-09-26T00:52:50.428Z,96889.00
2022-09-26T00:55:24.797Z,96882.00
2022-09-26T00:57:59.116Z,96885.00
2022-09-26T01:00:27.660Z,96882.00
2022-09-26T01:02:58.321Z,96877.00
2022-09-26T01:05:27.260Z,96871.00
2022-09-26T01:07:58.031Z,96873.00
2022-09-26T01:10:28.390Z,96861.00
2022-09-26T01:12:58.028Z,96856.00
2022-09-26T01:15:26.551Z,96865.00
2022-09-26T01:17:56.914Z,96869.00
2022-09-26T01:20:45.061Z,96871.00
2022-09-26T01:23:51.969Z,96852.00
2022-09-26T01:26:52.329Z,96865.00
2022-09-26T01:29:59.020Z,96863.00
2022-09-26T01:33:12.164Z,96843.00
2022-09-26T01:35:59.177Z,96867.00
2022-09-26T01:38:44.477Z,96858.00
2022-09-26T01:41:37.728Z,96860.00
2022-09-26T01:44:23.919Z,96854.00
2022-09-26T01:46:59.798Z,96875.00
2022-09-26T01:49:35.330Z,96859.00
2022-09-26T01:52:11.923Z,96868.00
2022-09-26T01:54:47.605Z,96871.00
2022-09-26T01:57:25.273Z,96869.00
2022-09-26T02:00:01.019Z,96867.00
2022-09-26T02:02:36.972Z,96864.00
2022-09-26T02:05:14.903Z,96866.00
2022-09-26T02:07:50.254Z,96870.00
2022-09-26T02:10:26.531Z,96866.00
2022-09-26T02:13:04.101Z,96861.00
2022-09-26T02:15:37.952Z,96846.00
2022-09-26T02:18:16.162Z,96856.00
2022-09-26T02:20:55.676Z,96862.00
2022-09-26T02:23:23.859Z,96853.00
2022-09-26T02:25:54.994Z,96845.00
2022-09-26T02:28:23.304Z,96851.00
2022-09-26T02:30:54.685Z,96845.00
2022-09-26T02:33:25.300Z,96857.00
2022-09-26T02:35:57.477Z,96863.00
2022-09-26T02:38:32.325Z,96851.00
2022-09-26T02:41:23.609Z,96858.00
2022-09-26T02:44:13.521Z,96841.00
2022-09-26T02:47:21.589Z,96848.00
2022-09-26T02:50:15.346Z,96852.00
2022-09-26T02:53:06.158Z,96846.00
2022-09-26T02:55:55.556Z,96843.00
2022-09-26T02:58:38.850Z,96847.00
2022-09-26T03:01:17.930Z,96839.00
2022-09-26T03:03:54.371Z,96830.00
2022-09-26T03:06:31.225Z,96840.00
2022-09-26T03:09:02.266Z,96832.00
2022-09-26T03:11:32.508Z,96837.00
2022-09-26T03:14:01.703Z,96818.00
2022-09-26T03:16:41.989Z,96815.00
2022-09-26T03:19:17.729Z,96810.00
2022-09-26T03:21:47.558Z,96827.00
2022-09-26T03:24:15.816Z,96816.00
2022-09-26T03:26:45.043Z,96825.00
2022-09-26T03:29:13.320Z,96824.00
2022-09-26T03:31:42.250Z,96825.00
2022-09-26T03:34:11.387Z,96813.00
2022-09-26T03:36:40.730Z,96822.00
2022-09-26T03:39:12.465Z,96814.00
2022-09-26T03:42:01.995Z,96807.00
2022-09-26T03:44:31.785Z,96807.00
2022-09-26T03:47:05.652Z,96806.00
2022-09-26T03:49:39.866Z,96795.00
2022-09-26T03:52:12.082Z,96807.00
2022-09-26T03:54:42.204Z,96796.00
2022-09-26T03:57:12.744Z,96806.00
2022-09-26T03:59:46.881Z,96805.00
2022-09-26T04:02:16.571Z,96803.00
2022-09-26T04:04:48.190Z,96795.00
2022-09-26T04:07:17.293Z,96787.00
2022-09-26T04:09:46.738Z,96793.00
2022-09-26T04:12:15.131Z,96783.00
2022-09-26T04:14:48.093Z,96793.00
2022-09-26T04:17:18.798Z,96789.00
2022-09-26T04:19:48.614Z,96793.00
2022-09-26T04:22:16.875Z,96790.00
2022-09-26T04:24:47.179Z,96788.00
2022-09-26T04:27:16.941Z,96797.00
2022-09-26T04:29:47.448Z,96782.00
2022-09-26T04:32:51.030Z,96780.00
2022-09-26T04:35:37.178Z,96778.00
2022-09-26T04:38:06.907Z,96784.00
2022-09-26T04:40:39.537Z,96772.00
2022-09-26T04:43:12.202Z,96770.00
2022-09-26T04:45:43.485Z,96777.00
2022-09-26T04:48:12.715Z,96781.00
2022-09-26T04:51:18.122Z,96764.00
2022-09-26T04:53:47.637Z,96774.00
2022-09-26T04:56:29.711Z,96776.00
2022-09-26T04:59:00.090Z,96756.00
2022-09-26T05:01:35.567Z,96763.00
2022-09-26T05:04:09.789Z,96761.00
2022-09-26T05:06:39.160Z,96766.00
2022-09-26T05:09:10.221Z,96761.00
2022-09-26T05:11:52.612Z,96758.00
2022-09-26T05:14:20.745Z,96775.00
2022-09-26T05:16:50.239Z,96772.00
2022-09-26T05:19:21.246Z,96772.00
2022-09-26T05:22:08.106Z,96759.00
2022-09-26T05:24:59.221Z,96752.00
2022-09-26T05:27:28.762Z,96760.00
2022-09-26T05:29:56.891Z,96762.00
2022-09-26T05:32:27.345Z,96757.00
2022-09-26T05:34:56.120Z,96775.00
2022-09-26T05:37:25.485Z,96749.00
2022-09-26T05:40:12.285Z,96753.00
2022-09-26T05:42:47.287Z,96761.00
2022-09-26T05:45:15.736Z,96751.00
2022-09-26T05:47:45.059Z,96755.00
2022-09-26T05:50:13.242Z,96753.00
2022-09-26T05:52:41.776Z,96757.00
2022-09-26T05:55:17.954Z,96762.00
2022-09-26T05:58:02.608Z,96757.00
2022-09-26T06:00:51.579Z,96748.00
2022-09-26T06:03:19.979Z,96766.00
2022-09-26T06:06:11.492Z,96762.00
2022-09-26T06:08:41.008Z,96771.00
2022-09-26T06:11:30.914Z,96768.00
2022-09-26T06:14:01.178Z,96759.00
2022-09-26T06:16:30.431Z,96752.00
2022-09-26T06:19:02.537Z,96751.00
2022-09-26T06:21:30.823Z,96745.00
2022-09-26T06:24:06.136Z,96747.00
2022-09-26T06:26:34.379Z,96749.00
2022-09-26T06:29:05.374Z,96758.00
2022-09-26T06:31:36.435Z,96756.00
2022-09-26T06:34:12.033Z,96751.00
2022-09-26T06:37:03.074Z,96750.00
2022-09-26T06:39:35.748Z,96739.00
2022-09-26T06:42:07.311Z,96739.00
2022-09-26T06:44:57.071Z,96756.00
2022-09-26T06:47:25.346Z,96759.00
2022-09-26T06:50:09.118Z,96749.00
2022-09-26T06:52:40.324Z,96745.00
2022-09-26T06:55:10.171Z,96733.00
2022-09-26T06:57:40.648Z,96746.00
2022-09-26T07:00:13.674Z,96736.00
2022-09-26T07:03:01.256Z,96730.00
2022-09-26T07:05:47.851Z,96745.00
2022-09-26T07:08:16.922Z,96730.00
2022-09-26T07:10:45.217Z,96719.00
2022-09-26T07:13:19.518Z,96720.00
2022-09-26T07:15:50.740Z,96720.00
2022-09-26T07:18:39.631Z,96728.00
2022-09-26T07:21:21.029Z,96725.00
2022-09-26T07:24:03.057Z,96731.00
2022-09-26T07:26:31.371Z,96739.00
2022-09-26T07:28:59.633Z,96731.00
2022-09-26T07:31:30.990Z,96727.00
2022-09-26T07:34:19.454Z,96717.00
2022-09-26T07:36:48.069Z,96719.00
2022-09-26T07:39:16.811Z,96734.00
2022-09-26T07:41:46.707Z,96724.00
2022-09-26T07:45:17.080Z,96713.00
2022-09-26T07:47:22.788Z,96718.00
2022-09-26T07:50:08.989Z,96711.00
2022-09-26T07:52:57.069Z,96719.00
2022-09-26T07:55:28.865Z,96715.00
2022-09-26T07:58:27.869Z,96717.00
2022-09-26T08:01:25.957Z,96712.00
2022-09-26T08:04:17.054Z,96710.00
2022-09-26T08:06:45.464Z,96718.00
2022-09-26T08:09:14.903Z,96717.00
2022-09-26T08:12:02.330Z,96711.00
2022-09-26T08:14:50.025Z,96714.00
2022-09-26T08:17:36.960Z,96716.00
2022-09-26T08:20:08.292Z,96702.00
2022-09-26T08:22:36.571Z,96699.00
2022-09-26T08:25:06.860Z,96708.00
2022-09-26T08:28:13.861Z,96703.00
2022-09-26T08:30:44.911Z,96714.00
2022-09-26T08:33:13.945Z,96701.00
2022-09-26T08:35:43.448Z,96702.00
2022-09-26T08:38:36.385Z,96711.00
2022-09-26T08:41:46.031Z,96707.00
2022-09-26T08:45:02.311Z,96707.00
2022-09-26T08:47:50.247Z,96695.00
2022-09-26T08:50:50.021Z,96692.00
2022-09-26T08:53:23.180Z,96697.00
2022-09-26T08:55:57.468Z,96696.00
2022-09-26T08:58:32.026Z,96689.00
2022-09-26T09:01:10.262Z,96696.00
2022-09-26T09:04:04.607Z,96678.00
2022-09-26T09:06:35.942Z,96685.00
2022-09-26T09:09:04.842Z,96681.00
2022-09-26T09:12:11.425Z,96681.00
2022-09-26T09:15:24.063Z,96674.00
2022-09-26T09:18:28.038Z,96662.00
2022-09-26T09:21:41.661Z,96671.00
2022-09-26T09:24:51.657Z,96671.00
2022-09-26T09:27:53.910Z,96671.00
2022-09-26T09:30:26.597Z,96663.00
2022-09-26T09:33:41.364Z,96674.00
2022-09-26T09:36:33.014Z,96654.00
2022-09-26T09:39:36.863Z,96654.00
2022-09-26T09:42:24.091Z,96666.00
2022-09-26T09:45:00.330Z,96663.00
2022-09-26T09:47:30.490Z,96670.00
2022-09-26T09:50:00.677Z,96663.00
2022-09-26T09:52:49.364Z,96652.00
2022-09-26T09:55:38.759Z,96659.00
2022-09-26T09:58:42.408Z,96657.00
2022-09-26T10:01:25.545Z,96653.00
2022-09-26T10:04:04.679Z,96646.00
2022-09-26T10:06:44.784Z,96629.00
2022-09-26T10:09:35.807Z,96627.00
2022-09-26T10:12:31.075Z,96636.00
2022-09-26T10:15:21.571Z,96629.00
2022-09-26T10:18:24.612Z,96635.00
2022-09-26T10:21:18.901Z,96625.00
2022-09-26T10:23:50.332Z,96627.00
2022-09-26T10:26:35.921Z,96630.00
2022-09-26T10:29:21.948Z,96637.00
2022-09-26T10:31:57.109Z,96616.00
2022-09-26T10:34:28.887Z,96606.00
2022-09-26T10:36:57.982Z,96615.00
2022-09-26T10:39:49.429Z,96612.00
2022-09-26T10:42:20.968Z,96623.00
2022-09-26T10:44:57.949Z,96610.00
2022-09-26T10:47:48.410Z,96613.00
2022-09-26T10:50:48.676Z,96601.00
2022-09-26T10:53:41.252Z,96591.00
2022-09-26T10:56:25.135Z,96610.00
2022-09-26T10:58:59.223Z,96594.00
2022-09-26T11:01:32.165Z,96599.00
2022-09-26T11:04:35.938Z,96598.00
2022-09-26T11:07:30.276Z,96593.00
2022-09-26T11:10:25.552Z,96597.00
2022-09-26T11:13:17.645Z,96602.00
2022-09-26T11:15:58.419Z,96589.00
2022-09-26T11:18:43.581Z,96592.00
2022-09-26T11:21:28.912Z,96583.00
2022-09-26T11:33:14.428Z,96578.00
2022-09-26T11:39:33.363Z,96581.00
2022-09-26T11:42:26.102Z,96571.00
2022-09-26T11:44:58.863Z,96563.00
2022-09-26T11:48:11.153Z,96565.00
2022-09-26T11:51:17.423Z,96563.00
2022-09-26T11:54:17.721Z,96538.00
2022-09-26T11:57:08.551Z,96534.00
2022-09-26T12:00:12.085Z,96521.00
2022-09-26T12:03:27.743Z,96523.00
2022-09-26T12:06:09.946Z,96528.00
2022-09-26T12:09:19.066Z,96506.00
2022-09-26T12:12:05.968Z,96509.00
2022-09-26T12:14:50.521Z,96504.00
2022-09-26T12:17:36.985Z,96504.00
2022-09-26T12:20:29.792Z,96491.00
2022-09-26T12:23:10.365Z,96486.00
2022-09-26T12:25:58.829Z,96490.00
2022-09-26T12:28:58.507Z,96476.00
2022-09-26T12:31:52.143Z,96474.00
2022-09-26T12:35:02.539Z,96466.00
2022-09-26T12:38:05.476Z,96452.00
2022-09-26T12:40:43.434Z,96458.00
2022-09-26T12:43:55.082Z,96450.00
2022-09-26T12:46:48.131Z,96454.00
2022-09-26T12:49:39.734Z,96442.00
2022-09-26T12:52:26.586Z,96438.00
2022-09-26T12:55:20.783Z,96446.00
2022-09-26T12:58:16.777Z,96424.00
2022-09-26T13:00:57.623Z,96418.00
2022-09-26T13:04:29.009Z,96429.00
2022-09-26T13:07:20.153Z,96421.00
2022-09-26T13:10:27.929Z,96417.00
2022-09-26T13:13:27.538Z,96409.00
2022-09-26T13:16:15.039Z,96415.00
2022-09-26T13:18:48.097Z,96402.00
2022-09-26T13:21:26.967Z,96394.00
2022-09-26T13:24:00.318Z,96398.00
2022-09-26T13:26:42.642Z,96382.00
2022-09-26T13:29:20.392Z,96392.00
2022-09-26T13:31:55.895Z,96389.00
2022-09-26T13:34:32.470Z,96381.00
2022-09-26T13:37:09.859Z,96379.00
2022-09-26T13:39:48.002Z,96368.00
2022-09-26T13:42:26.553Z,96373.00
2022-09-26T13:45:15.348Z,96365.00
2022-09-26T13:47:55.420Z,96373.00
2022-09-26T13:50:30.836Z,96360.00
2022-09-26T13:53:11.203Z,96354.00
2022-09-26T13:55:39.425Z,96359.00
2022-09-26T13:58:25.530Z,96367.00
2022-09-26T14:00:57.655Z,96368.00
2022-09-26T14:03:43.181Z,96360.00
2022-09-26T14:06:34.208Z,96360.00
2022-09-26T14:09:28.399Z,96360.00
2022-09-26T14:12:35.027Z,96344.00
2022-09-26T14:15:28.414Z,96357.00
2022-09-26T14:18:31.592Z,96357.00
2022-09-26T14:21:19.128Z,96340.00
2022-09-26T14:23:50.014Z,96332.00
2022-09-26T14:26:22.084Z,96328.00
2022-09-26T14:28:55.826Z,96341.00
2022-09-26T14:32:01.628Z,96333.00
2022-09-26T14:34:38.274Z,96337.00
2022-09-26T14:37:30.511Z,96350.00
2022-09-26T14:40:20.342Z,96329.00
2022-09-26T14:43:13.461Z,96331.00
2022-09-26T14:46:01.929Z,96329.00
2022-09-26T14:48:38.835Z,96313.00
2022-09-26T14:51:27.863Z,96322.00
2022-09-26T14:54:02.349Z,96312.00
2022-09-26T14:56:50.072Z,96318.00
2022-09-26T14:59:41.543Z,96304.00
2022-09-26T15:02:38.550Z,96304.00
2022-09-26T15:05:29.649Z,96308.00
2022-09-26T15:08:00.794Z,96299.00
2022-09-26T15:10:43.332Z,96308.00
2022-09-26T15:13:26.518Z,96299.00
2022-09-26T15:16:09.703Z,96291.00
2022-09-26T15:18:42.763Z,96289.00
2022-09-26T15:21:27.522Z,96293.00
2022-09-26T15:23:58.377Z,96293.00
2022-09-26T15:26:31.740Z,96299.00
2022-09-26T15:29:01.567Z,96298.00
2022-09-26T15:31:39.341Z,96305.00
2022-09-26T15:34:16.385Z,96296.00
2022-09-26T15:36:51.298Z,96286.00
2022-09-26T15:39:43.204Z,96275.00
2022-09-26T15:42:48.858Z,96274.00
2022-09-26T15:45:27.620Z,96283.00
2022-09-26T15:47:59.230Z,96268.00
2022-09-26T15:50:34.457Z,96274.00
2022-09-26T15:53:12.189Z,96262.00
2022-09-26T15:55:52.249Z,96271.00
2022-09-26T15:58:31.505Z,96269.00
2022-09-26T16:01:00.568Z,96259.00
2022-09-26T16:03:47.990Z,96259.00
2022-09-26T16:06:26.982Z,96266.00
2022-09-26T16:09:04.976Z,96262.00
2022-09-26T16:11:35.550Z,96257.00
2022-09-26T16:14:05.985Z,96252.00
2022-09-26T16:16:36.192Z,96253.00
2022-09-26T16:19:05.186Z,96255.00
2022-09-26T16:21:37.531Z,96259.00
2022-09-26T16:24:34.247Z,96253.00
2022-09-26T16:27:03.786Z,96245.00
2022-09-26T16:29:34.917Z,96244.00
2022-09-26T16:32:05.415Z,96252.00
2022-09-26T16:34:34.046Z,96256.00
2022-09-26T16:37:02.447Z,96247.00
2022-09-26T16:39:33.196Z,96236.00
2022-09-26T16:42:05.706Z,96243.00
2022-09-26T16:44:38.239Z,96250.00
2022-09-26T16:47:35.259Z,96245.00
2022-09-26T16:50:27.937Z,96251.00
2022-09-26T16:52:57.526Z,96248.00
2022-09-26T16:55:29.101Z,96240.00
2022-09-26T16:58:00.401Z,96234.00
2022-09-26T17:00:52.364Z,96243.00
2022-09-26T17:03:25.209Z,96240.00
2022-09-26T17:05:56.184Z,96249.00
2022-09-26T17:08:25.382Z,96241.00
2022-09-26T17:10:58.158Z,96234.00
2022-09-26T17:13:32.867Z,96248.00
2022-09-26T17:16:03.626Z,96242.00
2022-09-26T17:18:33.797Z,96243.00
2022-09-26T17:21:03.036Z,96239.00
2022-09-26T17:23:40.620Z,96246.00
2022-09-26T17:26:19.499Z,96249.00
2022-09-26T17:28:50.773Z,96246.00
2022-09-26T17:31:20.709Z,96241.00
2022-09-26T17:33:52.656Z,96251.00
2022-09-26T17:36:25.054Z,96244.00
2022-09-26T17:38:54.579Z,96248.00
2022-09-26T17:41:25.261Z,96241.00
2022-09-26T17:43:58.737Z,96233.00
2022-09-26T17:46:28.124Z,96232.00
2022-09-26T17:48:56.549Z,96232.00
2022-09-26T17:51:26.057Z,96237.00
2022-09-26T17:53:57.397Z,96232.00
2022-09-26T17:56:27.287Z,96232.00
2022-09-26T17:58:56.969Z,96240.00
2022-09-26T18:01:33.632Z,96210.00
2022-09-26T18:04:07.486Z,96213.00
2022-09-26T18:06:36.911Z,96219.00
2022-09-26T18:09:10.021Z,96210.00
2022-09-26T18:11:41.853Z,96221.00
2022-09-26T18:14:16.186Z,96213.00
2022-09-26T18:16:44.877Z,96204.00
2022-09-26T18:19:13.382Z,96214.00
2022-09-26T18:21:41.954Z,96216.00
2022-09-26T18:24:19.938Z,96197.00
2022-09-26T18:26:56.785Z,96207.00
2022-09-26T18:29:31.924Z,96201.00
2022-09-26T18:32:02.788Z,96205.00
2022-09-26T18:34:31.606Z,96211.00
2022-09-26T18:37:01.690Z,96195.00
2022-09-26T18:39:31.513Z,96191.00
2022-09-26T18:42:06.144Z,96192.00
2022-09-26T18:44:35.378Z,96187.00
2022-09-26T18:47:07.826Z,96193.00
2022-09-26T18:49:38.957Z,96193.00
2022-09-26T18:52:15.009Z,96186.00
2022-09-26T18:54:44.971Z,96188.00
2022-09-26T18:57:41.496Z,96188.00
2022-09-26T19:00:11.608Z,96180.00
2022-09-26T19:02:40.605Z,96190.00
2022-09-26T19:05:16.357Z,96200.00
2022-09-26T19:07:45.201Z,96188.00
2022-09-26T19:10:17.576Z,96176.00
2022-09-26T19:12:48.290Z,96190.00
2022-09-26T19:15:17.812Z,96173.00
2022-09-26T19:17:46.521Z,96169.00
2022-09-26T19:20:15.077Z,96171.00
2022-09-26T19:22:43.775Z,96170.00
2022-09-26T19:25:12.227Z,96166.00
2022-09-26T19:27:50.255Z,96159.00
2022-09-26T19:30:22.531Z,96150.00
2022-09-26T19:32:54.593Z,96146.00
2022-09-26T19:35:28.262Z,96143.00
2022-09-26T19:37:56.725Z,96144.00
2022-09-26T19:40:26.352Z,96142.00
2022-09-26T19:42:57.204Z,96130.00
2022-09-26T19:45:27.243Z,96136.00
2022-09-26T19:47:57.102Z,96130.00
2022-09-26T19:50:27.517Z,96126.00
2022-09-26T19:52:58.399Z,96123.00
2022-09-26T19:55:30.058Z,96130.00
2022-09-26T19:58:07.992Z,96119.00
2022-09-26T20:00:41.378Z,96119.00
2022-09-26T20:03:17.718Z,96111.00
2022-09-26T20:05:47.738Z,96110.00
2022-09-26T20:08:20.458Z,96107.00
2022-09-26T20:10:49.110Z,96103.00
2022-09-26T20:13:19.663Z,96102.00
2022-09-26T20:15:49.123Z,96094.00
2022-09-26T20:18:22.228Z,96092.00
2022-09-26T20:20:55.663Z,96092.00
2022-09-26T20:23:27.397Z,96085.00
2022-09-26T20:25:57.143Z,96088.00
2022-09-26T20:28:26.948Z,96081.00
2022-09-26T20:30:58.376Z,96073.00
2022-09-26T20:33:29.299Z,96074.00
2022-09-26T20:36:03.662Z,96065.00
2022-09-26T20:38:39.591Z,96062.00
2022-09-26T20:41:17.412Z,96065.00
2022-09-26T20:43:52.993Z,96061.00
2022-09-26T20:46:23.021Z,96061.00
2022-09-26T20:48:52.489Z,96049.00
2022-09-26T20:51:30.660Z,96057.00
2022-09-26T20:54:00.637Z,96042.00
2022-09-26T20:56:29.799Z,96031.00
2022-09-26T20:58:59.481Z,96044.00
2022-09-26T21:01:29.177Z,96025.00
2022-09-26T21:03:58.251Z,96029.00
2022-09-26T21:06:37.125Z,96016.00
2022-09-26T21:09:05.698Z,96018.00
2022-09-26T21:11:34.062Z,96000.00
2022-09-26T21:14:03.724Z,96006.00
2022-09-26T21:16:32.600Z,95993.00
2022-09-26T21:19:01.139Z,96007.00
2022-09-26T21:21:31.639Z,96001.00
2022-09-26T21:24:22.862Z,96007.00
2022-09-26T21:26:53.520Z,96000.00
2022-09-26T21:29:23.241Z,95981.00
2022-09-26T21:31:58.458Z,95975.00
2022-09-26T21:34:29.001Z,95988.00
2022-09-26T21:37:09.584Z,95986.00
2022-09-26T21:39:40.103Z,95976.00
2022-09-26T21:42:09.211Z,95977.00
2022-09-26T21:44:43.599Z,95966.00
2022-09-26T21:47:11.980Z,95980.00
2022-09-26T21:49:40.362Z,95960.00
2022-09-26T21:52:14.623Z,95972.00
2022-09-26T21:54:45.794Z,95965.00
2022-09-26T21:57:22.132Z,95957.00
2022-09-26T21:59:53.498Z,95942.00
2022-09-26T22:02:21.952Z,95948.00
2022-09-26T22:04:51.931Z,95927.00
2022-09-26T22:07:20.479Z,95930.00
2022-09-26T22:09:48.780Z,95938.00
2022-09-26T22:12:17.442Z,95920.00
2022-09-26T22:14:45.701Z,95930.00
2022-09-26T22:17:15.419Z,95922.00
2022-09-26T22:19:43.913Z,95916.00
2022-09-26T22:22:12.238Z,95903.00
2022-09-26T22:24:40.559Z,95897.00
2022-09-26T22:27:08.881Z,95897.00
2022-09-26T22:29:37.143Z,95894.00
2022-09-26T22:32:06.180Z,95897.00
2022-09-26T22:34:35.844Z,95885.00
2022-09-26T22:37:04.200Z,95889.00
2022-09-26T22:39:32.866Z,95884.00
2022-09-26T22:42:01.381Z,95878.00
2022-09-26T22:44:30.104Z,95871.00
2022-09-26T22:46:58.481Z,95885.00
2022-09-26T22:49:27.058Z,95872.00
2022-09-26T22:51:56.999Z,95858.00
2022-09-26T22:54:25.688Z,95860.00
2022-09-26T22:56:54.320Z,95855.00
2022-09-26T22:59:22.736Z,95844.00
2022-09-26T23:01:51.739Z,95852.00
2022-09-26T23:04:20.515Z,95845.00
2022-09-26T23:06:49.090Z,95845.00
2022-09-26T23:09:18.750Z,95838.00
2022-09-26T23:11:47.077Z,95829.00
2022-09-26T23:14:15.426Z,95845.00
2022-09-26T23:16:43.719Z,95826.00
2022-09-26T23:19:12.047Z,95828.00
2022-09-26T23:21:40.358Z,95837.00
2022-09-26T23:24:09.043Z,95818.00
2022-09-26T23:26:38.680Z,95835.00
2022-09-26T23:29:07.073Z,95836.00
2022-09-26T23:31:35.574Z,95822.00
2022-09-26T23:34:04.124Z,95815.00
2022-09-26T23:36:32.400Z,95818.00
2022-09-26T23:39:00.730Z,95814.00
2022-09-26T23:41:29.123Z,95808.00
2022-09-26T23:43:58.912Z,95803.00
2022-09-26T23:46:27.291Z,95813.00
2022-09-26T23:48:55.804Z,95814.00
2022-09-26T23:51:24.138Z,95804.00
2022-09-26T23:53:52.511Z,95801.00
2022-09-26T23:56:21.160Z,95801.00
2022-09-26T23:58:49.453Z,95790.00
